Time;durP1;ratioP1;P1;durP2;ratioP2;P2;SDS_P1;SDS_P2;PMS_P1;PMS_P2;Temp;Humidity;BMP_temperature;BMP_pressure;BME280_temperature;BME280_humidity;BME280_pressure;Samples;Min_cycle;Max_cycle;Signal;HPM_P1;HPM_P2
2022/12/01 00:00:55;;;;;;;45.83;15.75;;;5.30;99.90;;;;;;4994359;28;20478;-38
2022/12/01 00:03:21;;;;;;;46.10;16.75;;;5.30;99.90;;;;;;4992374;28;20031;-41
2022/12/01 00:05:46;;;;;;;50.47;16.77;;;5.30;99.90;;;;;;4995278;28;20506;-38
2022/12/01 00:08:12;;;;;;;41.90;17.08;;;5.40;99.90;;;;;;4993133;28;20027;-38
2022/12/01 00:10:38;;;;;;;40.67;16.60;;;5.40;99.90;;;;;;4994175;28;20034;-37
2022/12/01 00:13:05;;;;;;;44.10;16.02;;;5.40;99.90;;;;;;4995192;28;20033;-37
2022/12/01 00:15:33;;;;;;;47.30;16.40;;;5.40;99.90;;;;;;4996235;28;20113;-37
2022/12/01 00:17:59;;;;;;;;;;;5.40;99.90;;;;;;4996493;28;20117;-38
2022/12/01 00:20:25;;;;;;;42.17;15.18;;;5.50;99.90;;;;;;4996353;28;19914;-38
2022/12/01 00:22:51;;;;;;;46.05;16.08;;;5.50;99.90;;;;;;4996173;28;20026;-34
2022/12/01 00:25:18;;;;;;;41.53;15.93;;;5.60;99.90;;;;;;4994910;28;20026;-37
2022/12/01 00:27:49;;;;;;;50.35;18.40;;;5.60;99.90;;;;;;4996104;28;20509;-37
2022/12/01 00:30:15;;;;;;;44.63;15.88;;;5.70;99.90;;;;;;4995294;28;20038;-39
2022/12/01 00:32:41;;;;;;;40.20;16.13;;;5.70;99.90;;;;;;4995946;28;20035;-35
2022/12/01 00:35:07;;;;;;;54.22;18.77;;;5.70;99.90;;;;;;5000026;28;20348;-38
2022/12/01 00:37:33;;;;;;;49.58;16.23;;;5.70;99.90;;;;;;5015383;28;20080;-40
2022/12/01 00:39:59;;;;;;;41.72;16.85;;;5.70;99.90;;;;;;5015382;28;20033;-40
2022/12/01 00:42:25;;;;;;;46.17;16.55;;;5.70;99.90;;;;;;4997373;28;20026;-39
2022/12/01 00:44:51;;;;;;;50.70;17.42;;;5.80;99.90;;;;;;4995757;28;20028;-39
2022/12/01 00:47:17;;;;;;;43.95;17.30;;;5.80;99.90;;;;;;4995650;28;20417;-36
2022/12/01 00:49:46;;;;;;;50.92;17.35;;;5.90;99.90;;;;;;4995634;28;20027;-39
2022/12/01 00:52:13;;;;;;;51.38;17.73;;;5.80;99.90;;;;;;4995626;28;20030;-39
2022/12/01 00:54:39;;;;;;;49.40;17.70;;;5.80;99.90;;;;;;4995631;28;20105;-39
2022/12/01 00:57:05;;;;;;;42.03;17.00;;;5.90;99.90;;;;;;4995576;28;20423;-37
2022/12/01 00:59:30;;;;;;;46.65;17.83;;;5.90;99.90;;;;;;4992398;28;20074;-36
2022/12/01 01:01:56;;;;;;;42.95;17.02;;;5.90;99.90;;;;;;4993562;28;20038;-37
2022/12/01 01:04:22;;;;;;;46.45;17.73;;;5.90;99.90;;;;;;4996262;28;20030;-38
2022/12/01 01:06:47;;;;;;;45.35;16.60;;;5.90;99.90;;;;;;4994971;28;20030;-35
2022/12/01 01:09:14;;;;;;;40.08;14.93;;;6.00;99.90;;;;;;4977620;28;20078;-37
2022/12/01 01:11:40;;;;;;;49.53;17.63;;;6.00;99.90;;;;;;4995240;28;20034;-37
2022/12/01 01:14:06;;;;;;;43.33;16.52;;;6.00;99.90;;;;;;4995514;28;20031;-39
2022/12/01 01:16:33;;;;;;;46.67;17.15;;;6.10;99.90;;;;;;4994848;28;20030;-38
2022/12/01 01:18:58;;;;;;;51.83;17.55;;;6.10;99.90;;;;;;4994876;28;20071;-40
2022/12/01 01:21:25;;;;;;;48.13;17.20;;;6.10;99.90;;;;;;4995024;28;20065;-43
2022/12/01 01:23:52;;;;;;;42.85;16.38;;;6.20;99.90;;;;;;4994812;28;20038;-40
2022/12/01 01:26:19;;;;;;;39.97;15.02;;;6.20;99.90;;;;;;4992634;28;20035;-37
2022/12/01 01:28:45;;;;;;;48.20;16.88;;;6.20;99.90;;;;;;4994406;28;20050;-41
2022/12/01 01:31:15;;;;;;;46.53;17.05;;;6.20;99.90;;;;;;4994889;28;20078;-33
2022/12/01 01:33:41;;;;;;;45.03;15.80;;;6.20;99.90;;;;;;4993827;28;20549;-36
2022/12/01 01:36:07;;;;;;;44.67;16.50;;;6.20;99.90;;;;;;4999425;28;20060;-37
2022/12/01 01:38:33;;;;;;;50.28;17.50;;;6.20;99.90;;;;;;4990058;28;20057;-40
2022/12/01 01:40:59;;;;;;;50.22;18.60;;;6.20;99.90;;;;;;4992493;28;20042;-36
2022/12/01 01:43:45;;;;;;;46.83;18.27;;;6.30;99.90;;;;;;4991972;28;20035;-40
2022/12/01 01:46:19;;;;;;;43.90;16.88;;;6.30;99.90;;;;;;4972083;28;20027;-47
2022/12/01 01:48:53;;;;;;;47.72;15.80;;;6.30;99.90;;;;;;4993674;28;20498;-45
2022/12/01 01:51:32;;;;;;;44.17;15.27;;;6.30;99.90;;;;;;4993772;28;20044;-49
2022/12/01 01:54:07;;;;;;;43.80;15.73;;;6.40;99.90;;;;;;4993560;28;20044;-43
2022/12/01 01:56:34;;;;;;;48.03;16.67;;;6.40;99.90;;;;;;4992551;28;20027;-41
2022/12/01 01:59:00;;;;;;;48.50;16.57;;;6.40;99.90;;;;;;4992876;28;20050;-37
2022/12/01 02:01:25;;;;;;;44.53;16.38;;;6.30;99.90;;;;;;4992335;28;20033;-38
2022/12/01 02:03:53;;;;;;;54.58;18.70;;;6.30;99.90;;;;;;4992043;28;20030;-38
2022/12/01 02:06:20;;;;;;;42.22;17.05;;;6.40;99.90;;;;;;4993537;28;20487;-35
2022/12/01 02:08:46;;;;;;;35.42;12.40;;;6.40;99.90;;;;;;4992596;28;20589;-34
2022/12/01 02:11:24;;;;;;;40.63;17.17;;;6.40;99.90;;;;;;4975679;28;20131;-39
2022/12/01 02:14:01;;;;;;;36.53;14.55;;;6.40;99.90;;;;;;4992820;28;20038;-39
2022/12/01 02:16:55;;;;;;;54.28;17.27;;;6.40;99.90;;;;;;4992902;28;20534;-37
2022/12/01 02:20:02;;;;;;;55.95;18.10;;;6.40;99.90;;;;;;4993381;28;20030;-37
2022/12/01 02:22:55;;;;;;;43.67;16.00;;;6.40;99.90;;;;;;4975964;28;20030;-38
2022/12/01 02:25:42;;;;;;;51.40;17.63;;;6.40;99.90;;;;;;4989998;28;20497;-39
2022/12/01 02:28:08;;;;;;;42.83;17.03;;;6.40;99.90;;;;;;4984710;28;20089;-35
2022/12/01 02:30:48;;;;;;;42.70;15.95;;;6.30;99.90;;;;;;4992748;28;20483;-38
2022/12/01 02:33:26;;;;;;;54.58;17.25;;;6.30;99.90;;;;;;4987777;28;20054;-37
2022/12/01 02:36:03;;;;;;;47.58;16.95;;;6.30;99.90;;;;;;4993102;28;20105;-38
2022/12/01 02:38:39;;;;;;;47.70;17.52;;;6.30;99.90;;;;;;4986665;28;20117;-37
2022/12/01 02:41:25;;;;;;;46.67;16.30;;;6.30;99.90;;;;;;4980343;28;20026;-35
2022/12/01 02:44:12;;;;;;;47.25;15.57;;;6.30;99.90;;;;;;4992085;28;20034;-38
2022/12/01 02:46:48;;;;;;;44.50;14.75;;;6.30;99.90;;;;;;4973638;28;20042;-37
2022/12/01 02:49:22;;;;;;;51.17;16.38;;;6.30;99.90;;;;;;4990946;28;20395;-36
2022/12/01 02:51:51;;;;;;;43.25;16.83;;;6.40;99.90;;;;;;4992845;28;20037;-41
2022/12/01 02:54:18;;;;;;;54.20;17.23;;;6.40;99.90;;;;;;4992410;28;20030;-37
2022/12/01 02:56:44;;;;;;;45.97;16.52;;;6.40;99.90;;;;;;4992476;28;20073;-35
2022/12/01 02:59:12;;;;;;;45.15;15.85;;;6.40;99.90;;;;;;4990535;28;20542;-38
2022/12/01 03:01:53;;;;;;;50.50;17.52;;;6.40;99.90;;;;;;4991608;28;20034;-38
2022/12/01 03:04:29;;;;;;;42.38;16.92;;;6.40;99.90;;;;;;4992787;28;20030;-38
2022/12/01 03:07:05;;;;;;;39.22;16.08;;;6.40;99.90;;;;;;4991810;28;20030;-35
2022/12/01 03:09:34;;;;;;;54.70;18.10;;;6.40;99.90;;;;;;4990819;28;20402;-40
2022/12/01 03:12:11;;;;;;;53.72;17.17;;;6.40;99.90;;;;;;4991427;28;20046;-36
2022/12/01 03:14:44;;;;;;;53.25;19.50;;;6.30;99.90;;;;;;4990302;28;20031;-36
2022/12/01 03:17:23;;;;;;;53.72;18.48;;;6.30;99.90;;;;;;4974387;28;20038;-36
2022/12/01 03:20:12;;;;;;;50.42;16.80;;;6.30;99.90;;;;;;4991780;28;20507;-37
2022/12/01 03:22:45;;;;;;;51.63;17.77;;;6.30;99.90;;;;;;4978140;28;20046;-37
2022/12/01 03:25:13;;;;;;;51.03;18.13;;;6.40;99.90;;;;;;4990365;28;20033;-40
2022/12/01 03:27:42;;;;;;;;;;;6.30;99.90;;;;;;4993046;28;20042;-40
2022/12/01 03:30:09;;;;;;;59.35;17.20;;;6.30;99.90;;;;;;4990947;28;19925;-36
2022/12/01 03:33:18;;;;;;;53.08;17.02;;;6.40;99.90;;;;;;4990859;28;20030;-37
2022/12/01 03:35:58;;;;;;;42.17;16.35;;;6.30;99.90;;;;;;4974731;28;20049;-34
2022/12/01 03:38:26;;;;;;;46.05;15.15;;;6.40;99.90;;;;;;4993211;28;20031;-37
2022/12/01 03:41:00;;;;;;;55.63;16.40;;;6.30;99.90;;;;;;4990352;28;20466;-37
2022/12/01 03:43:37;;;;;;;54.75;17.30;;;6.30;99.90;;;;;;4991518;28;20081;-35
2022/12/01 03:46:23;;;;;;;55.03;18.88;;;6.20;99.90;;;;;;4990253;28;20034;-42
2022/12/01 03:48:51;;;;;;;49.90;15.88;;;6.20;99.90;;;;;;4980801;28;20027;-36
2022/12/01 03:51:32;;;;;;;56.63;17.15;;;6.10;99.90;;;;;;4991309;28;20509;-37
2022/12/01 03:54:16;;;;;;;53.58;17.17;;;6.20;99.90;;;;;;4991471;28;20114;-36
2022/12/01 03:56:51;;;;;;;40.85;15.00;;;6.20;99.90;;;;;;4990190;28;20476;-36
2022/12/01 03:59:19;;;;;;;53.13;17.92;;;6.20;99.90;;;;;;4992377;28;20022;-36
2022/12/01 04:01:45;;;;;;;50.10;17.90;;;6.20;99.90;;;;;;4990773;28;20057;-38
2022/12/01 04:04:12;;;;;;;55.60;17.08;;;6.10;99.90;;;;;;4993039;28;20060;-38
2022/12/01 04:06:40;;;;;;;60.30;17.10;;;6.10;99.90;;;;;;4977754;28;20038;-37
2022/12/01 04:09:06;;;;;;;50.50;17.70;;;6.10;99.90;;;;;;4994405;28;20027;-40
2022/12/01 04:14:15;;;;;;;47.35;17.30;;;6.10;99.90;;;;;;4995724;28;20048;-34
2022/12/01 04:16:41;;;;;;;55.03;18.23;;;6.10;99.90;;;;;;4994281;28;20105;-37
2022/12/01 04:19:07;;;;;;;48.97;19.63;;;6.10;99.90;;;;;;4992970;28;20030;-38
2022/12/01 04:21:32;;;;;;;58.17;17.67;;;6.10;99.90;;;;;;4996263;28;20034;-36
2022/12/01 04:24:01;;;;;;;51.10;18.73;;;6.10;99.90;;;;;;4993654;28;20394;-47
2022/12/01 04:26:32;;;;;;;54.78;17.27;;;6.20;99.90;;;;;;4994432;28;20449;-36
2022/12/01 04:29:03;;;;;;;51.28;16.23;;;6.10;99.90;;;;;;4994037;28;20105;-37
2022/12/01 04:31:28;;;;;;;50.50;16.42;;;6.00;99.90;;;;;;4994998;28;20503;-37
2022/12/01 04:33:55;;;;;;;48.67;15.77;;;6.10;99.90;;;;;;4994235;28;20042;-35
2022/12/01 04:36:22;;;;;;;57.25;18.40;;;6.00;99.90;;;;;;4995245;28;20026;-36
2022/12/01 04:38:48;;;;;;;57.33;17.83;;;6.10;99.90;;;;;;4994261;28;20034;-39
2022/12/01 04:41:14;;;;;;;54.03;18.33;;;6.10;99.90;;;;;;4994004;28;20049;-41
2022/12/01 04:43:40;;;;;;;53.95;17.42;;;6.10;99.90;;;;;;4993065;28;20113;-36
2022/12/01 04:46:07;;;;;;;51.15;16.80;;;6.10;99.90;;;;;;4976389;28;20483;-40
2022/12/01 04:48:37;;;;;;;60.30;17.95;;;6.10;99.90;;;;;;4995194;28;20541;-38
2022/12/01 04:51:05;;;;;;;53.45;16.42;;;6.10;99.90;;;;;;4971021;28;20042;-37
2022/12/01 04:53:30;;;;;;;50.97;18.13;;;6.10;99.90;;;;;;4990261;28;20041;-41
2022/12/01 04:55:58;;;;;;;57.60;17.13;;;6.10;99.90;;;;;;4992901;28;20679;-39
2022/12/01 04:58:23;;;;;;;51.13;15.98;;;6.10;99.90;;;;;;4976779;28;20038;-41
2022/12/01 05:00:49;;;;;;;46.10;16.65;;;6.00;99.90;;;;;;4994512;28;20500;-39
2022/12/01 05:03:14;;;;;;;48.33;15.85;;;6.00;99.90;;;;;;4994603;28;20118;-41
2022/12/01 05:05:40;;;;;;;45.95;17.20;;;5.90;99.90;;;;;;4994066;28;20434;-41
2022/12/01 05:08:06;;;;;;;48.35;16.55;;;5.90;99.90;;;;;;4994524;28;20026;-35
2022/12/01 05:10:35;;;;;;;45.10;16.67;;;5.80;99.90;;;;;;4993600;28;20542;-37
2022/12/01 05:13:01;;;;;;;48.63;17.17;;;5.80;99.90;;;;;;4994505;28;20054;-39
2022/12/01 05:15:26;;;;;;;55.55;17.85;;;5.70;99.90;;;;;;4991591;28;20121;-38
2022/12/01 05:17:52;;;;;;;51.30;16.35;;;5.60;99.90;;;;;;4992797;28;20117;-37
2022/12/01 05:23:05;;;;;;;56.35;16.58;;;5.60;99.90;;;;;;4993326;28;20040;-35
2022/12/01 05:25:31;;;;;;;54.17;17.00;;;5.60;99.90;;;;;;4995208;28;20023;-37
2022/12/01 05:27:57;;;;;;;54.40;17.23;;;5.60;99.90;;;;;;4995631;28;20030;-39
2022/12/01 05:30:23;;;;;;;59.60;18.30;;;5.50;99.90;;;;;;4993686;28;20050;-38
2022/12/01 05:32:48;;;;;;;49.22;15.73;;;5.50;99.90;;;;;;4993503;28;20482;-40
2022/12/01 05:35:14;;;;;;;45.72;15.60;;;5.50;99.90;;;;;;4992985;28;20522;-38
2022/12/01 05:37:40;;;;;;;54.00;17.15;;;5.40;99.90;;;;;;4993196;28;20045;-37
2022/12/01 05:40:06;;;;;;;54.40;16.45;;;5.50;99.90;;;;;;4992960;28;20026;-39
2022/12/01 05:42:32;;;;;;;52.25;16.45;;;5.50;99.90;;;;;;4992667;28;20096;-38
2022/12/01 05:44:57;;;;;;;45.88;15.82;;;5.50;99.90;;;;;;4994626;28;20495;-39
2022/12/01 05:47:23;;;;;;;51.15;16.92;;;5.50;99.90;;;;;;4993250;28;20029;-34
2022/12/01 05:49:49;;;;;;;51.55;18.80;;;5.50;99.90;;;;;;4994624;28;20514;-40
2022/12/01 05:52:14;;;;;;;62.53;18.67;;;5.50;99.90;;;;;;4994587;28;20023;-41
2022/12/01 05:54:40;;;;;;;55.72;16.02;;;5.50;99.90;;;;;;4994524;28;20026;-36
2022/12/01 05:57:05;;;;;;;56.55;17.00;;;5.50;99.90;;;;;;4993529;28;20076;-36
2022/12/01 05:59:31;;;;;;;50.15;17.05;;;5.50;99.90;;;;;;4994230;28;20030;-38
2022/12/01 06:01:57;;;;;;;59.80;18.17;;;5.50;99.90;;;;;;4993195;28;20076;-38
2022/12/01 06:04:23;;;;;;;48.30;15.45;;;5.50;99.90;;;;;;4994206;28;20117;-38
2022/12/01 06:06:49;;;;;;;68.40;18.67;;;5.50;99.90;;;;;;4992702;28;20504;-42
2022/12/01 06:09:15;;;;;;;55.60;17.33;;;5.50;99.90;;;;;;4994125;28;20394;-47
2022/12/01 06:11:40;;;;;;;57.30;18.98;;;5.50;99.90;;;;;;4993490;28;20038;-39
2022/12/01 06:14:06;;;;;;;55.58;18.35;;;5.50;99.90;;;;;;4993789;28;20462;-43
2022/12/01 06:16:32;;;;;;;56.03;17.67;;;5.50;99.90;;;;;;4991298;28;20117;-42
2022/12/01 06:18:57;;;;;;;44.90;17.35;;;5.50;99.90;;;;;;4990824;28;20026;-38
2022/12/01 06:21:23;;;;;;;57.80;17.65;;;5.50;99.90;;;;;;4991410;28;20023;-35
2022/12/01 06:23:48;;;;;;;56.70;16.55;;;5.50;99.90;;;;;;4992594;28;20498;-37
2022/12/01 06:26:14;;;;;;;56.90;16.92;;;5.50;99.90;;;;;;4997057;28;20218;-35
2022/12/01 06:28:40;;;;;;;61.78;18.05;;;5.50;99.90;;;;;;4971992;28;20023;-40
2022/12/01 06:31:05;;;;;;;54.97;18.38;;;5.50;99.90;;;;;;4991218;28;20042;-40
2022/12/01 06:33:31;;;;;;;54.05;17.35;;;5.50;99.90;;;;;;4991219;28;20535;-42
2022/12/01 06:35:58;;;;;;;54.20;16.60;;;5.50;99.90;;;;;;4993070;28;20481;-39
2022/12/01 06:38:24;;;;;;;59.92;17.65;;;5.50;99.90;;;;;;4993088;28;20041;-39
2022/12/01 06:40:50;;;;;;;57.67;18.50;;;5.40;99.90;;;;;;4990047;28;20030;-42
2022/12/01 06:43:15;;;;;;;63.08;17.05;;;5.40;99.90;;;;;;4988490;28;20018;-41
2022/12/01 06:45:41;;;;;;;48.03;16.90;;;5.40;99.90;;;;;;4991884;28;20557;-38
2022/12/01 06:48:07;;;;;;;57.20;18.02;;;5.40;99.90;;;;;;4992581;28;20037;-37
2022/12/01 06:50:32;;;;;;;54.47;17.92;;;5.30;99.90;;;;;;4991469;28;20053;-42
2022/12/01 06:52:58;;;;;;;60.72;18.45;;;5.20;99.90;;;;;;4991838;28;20109;-40
2022/12/01 06:55:24;;;;;;;64.00;18.20;;;5.20;99.90;;;;;;4961376;28;20030;-34
2022/12/01 06:57:49;;;;;;;57.30;17.33;;;5.20;99.90;;;;;;4991216;28;20038;-34
2022/12/01 07:00:15;;;;;;;63.30;18.92;;;5.10;99.90;;;;;;4991186;28;20034;-39
2022/12/01 07:02:41;;;;;;;57.55;18.10;;;5.10;99.90;;;;;;4990807;28;20029;-34
2022/12/01 07:05:07;;;;;;;71.20;19.73;;;5.20;99.90;;;;;;4992182;28;20529;-36
2022/12/01 07:07:35;;;;;;;60.92;18.20;;;5.20;99.90;;;;;;4990991;28;20522;-39
2022/12/01 07:10:01;;;;;;;66.15;19.30;;;5.20;99.90;;;;;;4991629;28;20022;-37
2022/12/01 07:12:30;;;;;;;75.88;19.05;;;5.20;99.90;;;;;;4992286;28;20489;-39
2022/12/01 07:14:56;;;;;;;63.08;17.80;;;5.10;99.90;;;;;;4993552;28;20038;-36
2022/12/01 07:17:22;;;;;;;59.90;18.23;;;5.10;99.90;;;;;;4987024;28;20019;-39
2022/12/01 07:19:48;;;;;;;60.45;17.90;;;5.10;99.90;;;;;;4973688;28;20041;-36
2022/12/01 07:22:14;;;;;;;74.15;18.45;;;5.10;99.90;;;;;;4991965;28;20030;-37
2022/12/01 07:24:40;;;;;;;51.92;17.48;;;5.10;99.90;;;;;;4991653;28;20022;-40
2022/12/01 07:27:06;;;;;;;63.47;19.50;;;5.10;99.90;;;;;;5000765;28;20386;-37
2022/12/01 07:29:32;;;;;;;63.33;17.65;;;5.10;99.90;;;;;;4975497;28;20026;-39
2022/12/01 07:31:58;;;;;;;59.88;19.52;;;5.10;99.90;;;;;;4990566;28;20092;-37
2022/12/01 07:34:23;;;;;;;65.75;18.27;;;5.10;99.90;;;;;;4991388;28;20022;-54
2022/12/01 07:36:49;;;;;;;67.85;20.60;;;5.10;99.90;;;;;;4991120;28;20026;-38
2022/12/01 07:39:15;;;;;;;68.03;19.25;;;5.00;99.90;;;;;;4992941;28;20411;-48
2022/12/01 07:41:40;;;;;;;62.97;17.75;;;5.00;99.90;;;;;;4989928;28;20450;-42
2022/12/01 07:44:06;;;;;;;58.85;19.35;;;5.00;99.90;;;;;;4998035;28;20089;-44
2022/12/01 07:46:31;;;;;;;58.22;18.80;;;5.00;99.90;;;;;;4994638;28;20026;-43
2022/12/01 07:49:06;;;;;;;58.70;18.77;;;5.10;99.90;;;;;;4997306;28;20057;-35
2022/12/01 07:51:33;;;;;;;65.80;19.38;;;5.10;99.90;;;;;;4990410;28;20046;-47
2022/12/01 07:54:04;;;;;;;60.60;19.55;;;5.10;99.90;;;;;;4997160;28;20512;-44
2022/12/01 07:56:29;;;;;;;70.95;19.30;;;5.10;99.90;;;;;;4995283;28;20501;-44
2022/12/01 07:58:55;;;;;;;57.40;18.38;;;5.10;99.90;;;;;;4975532;28;20038;-45
2022/12/01 08:01:23;;;;;;;57.22;17.10;;;5.10;99.90;;;;;;4994191;28;20037;-44
2022/12/01 08:03:50;;;;;;;65.93;19.60;;;5.10;99.90;;;;;;4993113;28;20019;-44
2022/12/01 08:06:17;;;;;;;58.60;19.00;;;5.10;99.90;;;;;;4977316;28;20133;-39
2022/12/01 08:08:43;;;;;;;64.65;17.95;;;5.20;99.90;;;;;;4977814;28;20034;-34
2022/12/01 08:11:24;;;;;;;72.10;18.92;;;5.20;99.90;;;;;;4995682;28;20037;-36
2022/12/01 08:13:51;;;;;;;64.88;18.48;;;5.10;99.90;;;;;;4995710;28;20044;-43
2022/12/01 08:16:19;;;;;;;64.60;19.35;;;5.10;99.90;;;;;;4994192;28;20030;-36
2022/12/01 08:18:45;;;;;;;67.70;19.17;;;5.10;99.90;;;;;;4994157;28;20033;-40
2022/12/01 08:21:14;;;;;;;62.40;19.88;;;5.10;99.90;;;;;;4993259;28;20129;-41
2022/12/01 08:23:41;;;;;;;57.38;18.20;;;5.10;99.90;;;;;;4993842;28;20022;-41
2022/12/01 08:26:15;;;;;;;68.65;18.35;;;5.20;99.90;;;;;;4967572;28;20030;-38
2022/12/01 08:28:42;;;;;;;68.43;18.98;;;5.20;99.90;;;;;;4993945;28;20038;-34
2022/12/01 08:31:22;;;;;;;50.38;19.02;;;5.20;99.90;;;;;;4995190;28;20055;-34
2022/12/01 08:33:49;;;;;;;57.75;18.20;;;5.30;99.90;;;;;;4974580;28;20070;-40
2022/12/01 08:36:16;;;;;;;66.10;19.00;;;5.30;99.90;;;;;;4993318;28;20479;-38
2022/12/01 08:38:43;;;;;;;72.03;18.77;;;5.40;99.90;;;;;;4993213;28;20448;-42
2022/12/01 08:41:10;;;;;;;53.53;17.13;;;5.50;99.90;;;;;;4977154;28;20391;-41
2022/12/01 08:43:40;;;;;;;72.78;20.70;;;5.60;99.90;;;;;;4975392;28;20027;-44
2022/12/01 08:46:06;;;;;;;70.63;19.80;;;5.70;99.90;;;;;;4994987;28;20486;-58
2022/12/01 08:48:32;;;;;;;61.80;20.50;;;5.70;99.90;;;;;;4991063;28;20077;-48
2022/12/01 08:51:07;;;;;;;65.68;18.75;;;5.70;99.90;;;;;;4993205;28;20479;-43
2022/12/01 08:53:35;;;;;;;57.63;16.95;;;5.80;99.90;;;;;;4991644;28;20027;-43
2022/12/01 08:56:07;;;;;;;60.15;18.00;;;5.90;99.90;;;;;;4991417;28;20038;-45
2022/12/01 08:58:32;;;;;;;59.40;20.38;;;6.00;99.90;;;;;;4978030;28;20510;-41
2022/12/01 09:01:03;;;;;;;59.85;19.17;;;6.00;99.90;;;;;;5006701;28;20064;-51
2022/12/01 09:03:30;;;;;;;64.15;18.52;;;6.00;99.90;;;;;;4999762;28;20038;-43
2022/12/01 09:06:02;;;;;;;80.50;20.33;;;6.10;99.90;;;;;;4995720;28;20093;-45
2022/12/01 09:08:30;;;;;;;61.88;18.30;;;6.00;99.90;;;;;;4978099;28;20018;-44
2022/12/01 09:10:57;;;;;;;54.15;17.55;;;6.00;99.90;;;;;;4994231;28;20489;-44
2022/12/01 09:13:22;;;;;;;62.70;18.45;;;6.00;99.90;;;;;;4992156;28;20375;-47
2022/12/01 09:15:59;;;;;;;54.75;18.58;;;6.00;99.90;;;;;;4994976;28;20470;-48
2022/12/01 09:18:25;;;;;;;56.83;19.50;;;6.00;99.90;;;;;;4994123;28;20030;-43
2022/12/01 09:20:51;;;;;;;68.18;18.98;;;6.10;99.90;;;;;;4993003;28;20042;-46
2022/12/01 09:23:17;;;;;;;55.53;19.33;;;6.10;99.90;;;;;;4992475;28;20030;-44
2022/12/01 09:25:43;;;;;;;55.88;19.50;;;6.10;99.90;;;;;;4976903;28;20026;-41
2022/12/01 09:28:09;;;;;;;60.92;19.63;;;6.10;99.90;;;;;;4993458;28;20495;-43
2022/12/01 09:30:35;;;;;;;61.65;18.23;;;6.20;99.90;;;;;;4992906;28;20046;-42
2022/12/01 09:33:00;;;;;;;52.92;17.60;;;6.20;99.90;;;;;;4991090;28;20470;-42
2022/12/01 09:35:26;;;;;;;64.25;19.20;;;6.20;99.90;;;;;;4991073;28;20560;-40
2022/12/01 09:37:52;;;;;;;68.63;20.27;;;6.30;99.90;;;;;;4991766;28;20383;-43
2022/12/01 09:40:18;;;;;;;65.53;19.02;;;6.30;99.90;;;;;;4992876;28;20038;-47
2022/12/01 09:42:46;;;;;;;63.63;18.40;;;6.30;99.90;;;;;;4993071;28;21645;-42
2022/12/01 09:45:32;;;;;;;;;;;6.40;99.90;;;;;;4994671;28;20081;-43
2022/12/01 09:48:02;;;;;;;61.88;17.70;;;6.40;99.90;;;;;;4975293;28;20317;-52
2022/12/01 09:50:29;;;;;;;70.43;19.23;;;6.50;99.90;;;;;;4975016;28;20395;-42
2022/12/01 09:53:10;;;;;;;59.90;19.83;;;6.60;99.90;;;;;;4994165;28;20034;-40
2022/12/01 09:58:27;;;;;;;64.70;20.35;;;6.60;99.90;;;;;;5010315;28;20053;-42
2022/12/01 10:00:53;;;;;;;62.78;19.33;;;6.60;99.90;;;;;;5014192;28;20473;-57
2022/12/01 10:03:31;;;;;;;66.63;18.50;;;6.60;99.90;;;;;;4995300;28;20055;-44
2022/12/01 10:06:07;;;;;;;59.17;18.98;;;6.70;99.90;;;;;;4974887;28;20102;-42
2022/12/01 10:08:40;;;;;;;62.53;19.08;;;6.80;99.90;;;;;;4975150;28;20503;-42
2022/12/01 10:11:19;;;;;;;57.25;20.10;;;6.90;99.90;;;;;;4975177;28;20074;-45
2022/12/01 10:13:45;;;;;;;61.03;21.15;;;6.90;99.90;;;;;;4974738;28;20447;-42
2022/12/01 10:16:14;;;;;;;56.92;19.17;;;6.90;99.90;;;;;;4957396;28;20022;-42
2022/12/01 10:19:07;;;;;;;60.58;20.05;;;7.00;99.90;;;;;;4974796;28;20031;-47
2022/12/01 10:21:51;;;;;;;58.65;18.85;;;7.00;99.90;;;;;;4975468;28;20026;-56
2022/12/01 10:24:29;;;;;;;60.90;18.92;;;7.00;99.90;;;;;;4994027;28;20026;-44
2022/12/01 10:26:59;;;;;;;54.25;18.48;;;7.00;99.90;;;;;;5006958;28;20120;-44
2022/12/01 10:29:33;;;;;;;65.65;18.98;;;7.00;99.90;;;;;;5013694;28;20382;-43
2022/12/01 10:32:16;;;;;;;59.80;20.08;;;7.10;99.90;;;;;;4997828;28;20057;-44
2022/12/01 10:35:00;;;;;;;60.20;19.77;;;7.10;99.90;;;;;;4992486;28;20036;-42
2022/12/01 10:37:29;;;;;;;62.88;21.20;;;7.10;99.90;;;;;;4975584;28;20475;-40
2022/12/01 10:39:56;;;;;;;64.47;19.77;;;7.20;99.90;;;;;;4965721;28;20092;-43
2022/12/01 10:42:36;;;;;;;59.47;19.75;;;7.20;99.90;;;;;;4993559;28;20439;-43
2022/12/01 10:45:05;;;;;;;57.80;19.48;;;7.30;99.90;;;;;;4992951;28;20394;-43
2022/12/01 10:47:31;;;;;;;61.53;19.15;;;7.40;99.90;;;;;;4993589;28;20031;-43
2022/12/01 10:49:57;;;;;;;59.47;18.83;;;7.40;99.90;;;;;;4992463;28;20470;-44
2022/12/01 10:52:36;;;;;;;56.85;19.30;;;7.40;99.90;;;;;;4993481;28;20494;-46
2022/12/01 10:55:25;;;;;;;59.72;19.27;;;7.50;99.90;;;;;;4992764;28;20022;-58
2022/12/01 10:57:52;;;;;;;56.72;19.83;;;7.60;99.90;;;;;;4993466;28;20038;-42
2022/12/01 11:00:27;;;;;;;50.85;16.95;;;7.50;99.90;;;;;;4960079;28;20018;-48
2022/12/01 11:02:53;;;;;;;56.00;20.08;;;7.50;99.90;;;;;;4993566;28;20027;-43
2022/12/01 11:05:33;;;;;;;53.88;18.80;;;7.40;99.90;;;;;;4992787;28;20474;-41
2022/12/01 11:07:59;;;;;;;51.50;17.30;;;7.40;99.90;;;;;;4987769;28;20029;-47
2022/12/01 11:10:35;;;;;;;50.00;16.80;;;7.40;99.90;;;;;;5009503;28;20026;-44
2022/12/01 11:13:23;;;;;;;53.47;18.23;;;7.50;99.90;;;;;;5004544;28;20052;-43
2022/12/01 11:15:50;;;;;;;;;;;7.50;99.90;;;;;;5017671;28;20026;-44
2022/12/01 11:18:23;;;;;;;59.97;18.52;;;7.50;99.90;;;;;;5017002;28;19905;-59
2022/12/01 11:21:05;;;;;;;44.33;17.05;;;7.50;99.90;;;;;;4999246;28;20394;-56
2022/12/01 11:23:35;;;;;;;52.85;17.88;;;7.50;99.90;;;;;;4990108;28;20382;-43
2022/12/01 11:26:00;;;;;;;51.90;16.85;;;7.50;99.90;;;;;;4997215;28;20434;-56
2022/12/01 11:28:26;;;;;;;52.90;18.75;;;7.60;99.90;;;;;;4988094;28;20127;-42
2022/12/01 11:31:05;;;;;;;48.70;18.60;;;7.70;99.90;;;;;;4977635;28;20494;-42
2022/12/01 11:33:38;;;;;;;49.70;17.40;;;7.80;99.90;;;;;;4978097;28;20463;-42
2022/12/01 11:36:04;;;;;;;51.72;15.82;;;7.80;99.90;;;;;;4985299;28;20073;-42
2022/12/01 11:38:33;;;;;;;45.08;16.23;;;7.90;99.90;;;;;;5016675;28;20452;-41
2022/12/01 11:40:59;;;;;;;40.40;16.17;;;8.00;99.90;;;;;;5016729;28;20389;-44
2022/12/01 11:43:29;;;;;;;59.42;17.08;;;8.00;99.90;;;;;;4999401;28;20081;-43
2022/12/01 11:45:57;;;;;;;46.38;15.57;;;8.00;99.90;;;;;;4984929;28;20088;-42
2022/12/01 11:48:27;;;;;;;40.00;15.68;;;8.00;99.90;;;;;;4995934;28;20478;-45
2022/12/01 11:51:18;;;;;;;46.03;17.35;;;8.00;99.90;;;;;;4993473;28;20367;-42
2022/12/01 11:53:43;;;;;;;48.90;17.27;;;8.10;99.90;;;;;;4994299;28;20034;-41
2022/12/01 11:56:23;;;;;;;41.72;16.33;;;8.20;99.90;;;;;;4994073;28;20092;-45
2022/12/01 11:58:54;;;;;;;46.70;14.70;;;8.20;99.90;;;;;;4996322;28;20197;-43
2022/12/01 12:01:45;;;;;;;47.72;17.20;;;8.20;99.90;;;;;;4994830;28;20034;-43
2022/12/01 12:04:37;;;;;;;41.58;15.20;;;8.20;99.90;;;;;;4996893;28;20466;-42
2022/12/01 12:07:21;;;;;;;45.42;15.90;;;8.10;99.90;;;;;;4996525;28;20546;-47
2022/12/01 12:10:27;;;;;;;49.22;16.80;;;8.00;99.90;;;;;;4996547;28;20097;-43
2022/12/01 12:12:59;;;;;;;40.67;15.27;;;8.00;99.90;;;;;;4996482;28;20471;-43
2022/12/01 12:15:45;;;;;;;43.05;17.27;;;7.90;99.90;;;;;;4996378;28;20482;-43
2022/12/01 12:18:35;;;;;;;45.38;16.40;;;7.90;99.90;;;;;;4996239;28;20022;-43
2022/12/01 12:21:19;;;;;;;42.67;15.65;;;8.00;99.90;;;;;;4976729;28;20479;-42
2022/12/01 12:23:45;;;;;;;42.20;15.68;;;7.90;99.90;;;;;;4976811;28;20030;-48
2022/12/01 12:26:25;;;;;;;38.22;13.95;;;7.90;99.90;;;;;;4990260;28;20025;-41
2022/12/01 12:28:58;;;;;;;46.53;15.90;;;8.00;99.90;;;;;;5016053;28;20022;-43
2022/12/01 12:31:42;;;;;;;38.75;14.52;;;8.10;99.90;;;;;;5015606;28;20450;-45
2022/12/01 12:34:45;;;;;;;38.35;15.68;;;8.20;99.90;;;;;;5011358;28;20030;-41
2022/12/01 12:37:28;;;;;;;44.92;16.50;;;8.20;99.90;;;;;;4974837;28;20505;-44
2022/12/01 12:40:31;;;;;;;47.42;16.27;;;8.30;99.90;;;;;;4976534;28;20031;-41
2022/12/01 12:43:18;;;;;;;43.67;14.75;;;8.20;99.90;;;;;;4976376;28;20030;-43
2022/12/01 12:45:55;;;;;;;43.50;16.10;;;8.20;99.90;;;;;;4976661;28;20390;-43
2022/12/01 12:48:39;;;;;;;37.55;14.35;;;8.20;99.90;;;;;;4976385;28;20031;-42
2022/12/01 12:51:14;;;;;;;45.20;17.48;;;8.20;99.90;;;;;;4976396;28;20031;-44
2022/12/01 12:53:50;;;;;;;43.70;15.82;;;8.10;99.90;;;;;;4987669;28;20482;-42
2022/12/01 12:56:18;;;;;;;38.80;14.75;;;8.00;99.90;;;;;;4995579;28;20026;-49
2022/12/01 12:58:52;;;;;;;33.70;13.73;;;8.00;99.90;;;;;;4995613;28;20026;-43
2022/12/01 13:01:32;;;;;;;37.65;14.90;;;8.00;99.90;;;;;;4978053;28;20058;-42
2022/12/01 13:04:08;;;;;;;41.25;15.38;;;7.90;99.90;;;;;;4995841;28;20030;-53